createdAt,value
2023-03-14T00:01:30.238Z,83.52
2023-03-14T00:04:00.466Z,83.47
2023-03-14T00:06:30.296Z,83.37
2023-03-14T00:09:01.012Z,83.13
2023-03-14T00:11:30.917Z,83.49
2023-03-14T00:14:00.776Z,83.56
2023-03-14T00:16:31.319Z,83.63
2023-03-14T00:19:02.101Z,83.58
2023-03-14T00:21:31.513Z,83.17
2023-03-14T00:24:02.418Z,83.97
2023-03-14T00:26:31.708Z,83.81
2023-03-14T00:29:01.635Z,83.93
2023-03-14T00:31:31.098Z,84.10
2023-03-14T00:34:00.765Z,84.14
2023-03-14T00:36:30.108Z,83.93
2023-03-14T00:39:00.873Z,83.82
2023-03-14T00:41:30.325Z,84.42
2023-03-14T00:43:59.782Z,84.42
2023-03-14T00:46:29.278Z,84.27
2023-03-14T00:50:24.647Z,84.06
2023-03-14T00:52:54.126Z,84.20
2023-03-14T00:55:23.384Z,84.18
2023-03-14T00:57:52.722Z,83.98
2023-03-14T01:00:22.416Z,84.34
2023-03-14T01:02:51.721Z,84.35
2023-03-14T01:05:21.067Z,84.33
2023-03-14T01:07:51.811Z,84.40
2023-03-14T01:10:21.569Z,84.49
2023-03-14T01:12:51.069Z,84.64
2023-03-14T01:15:21.252Z,84.43
2023-03-14T01:17:50.573Z,84.64
2023-03-14T01:20:20.791Z,84.27
2023-03-14T01:22:51.468Z,84.34
2023-03-14T01:25:21.351Z,84.55
2023-03-14T01:27:50.716Z,84.17
2023-03-14T01:30:20.136Z,84.44
2023-03-14T01:32:49.471Z,84.39
2023-03-14T01:35:18.943Z,85.00
2023-03-14T01:37:48.212Z,84.81
2023-03-14T01:40:19.070Z,84.50
2023-03-14T01:42:49.723Z,85.01
2023-03-14T01:46:21.945Z,84.61
2023-03-14T01:48:59.802Z,84.64
2023-03-14T01:51:36.024Z,84.69
2023-03-14T01:54:14.585Z,84.56
2023-03-14T01:56:48.999Z,84.84
2023-03-14T01:59:18.358Z,84.76
2023-03-14T02:01:50.882Z,85.05
2023-03-14T02:04:23.023Z,85.04
2023-03-14T02:07:03.274Z,84.78
2023-03-14T02:09:33.977Z,85.31
2023-03-14T02:12:05.282Z,85.87
2023-03-14T02:14:37.239Z,85.64
2023-03-14T02:17:09.508Z,85.20
2023-03-14T02:20:01.432Z,85.83
2023-03-14T02:22:30.971Z,85.22
2023-03-14T02:25:11.486Z,85.80
2023-03-14T02:27:42.936Z,85.56
2023-03-14T02:30:16.268Z,85.17
2023-03-14T02:32:50.625Z,85.34
2023-03-14T02:35:25.266Z,85.26
2023-03-14T02:37:59.357Z,85.69
2023-03-14T02:40:28.772Z,85.79
2023-03-14T02:42:59.560Z,86.05
2023-03-14T02:45:45.644Z,85.77
2023-03-14T02:48:20.670Z,85.61
2023-03-14T02:50:53.353Z,85.22
2023-03-14T02:53:27.709Z,84.99
2023-03-14T02:55:57.120Z,85.08
2023-03-14T02:58:28.444Z,85.39
2023-03-14T03:00:57.817Z,85.92
2023-03-14T03:03:28.696Z,85.79
2023-03-14T03:05:59.849Z,85.68
2023-03-14T03:08:30.824Z,86.02
2023-03-14T03:11:01.367Z,85.74
2023-03-14T03:13:32.125Z,85.84
2023-03-14T03:16:01.482Z,85.60
2023-03-14T03:18:30.922Z,85.72
2023-03-14T03:21:03.913Z,85.84
2023-03-14T03:23:33.870Z,86.20
2023-03-14T03:26:03.528Z,85.78
2023-03-14T03:28:34.230Z,85.95
2023-03-14T03:31:10.717Z,85.44
2023-03-14T03:33:40.471Z,85.48
2023-03-14T03:36:12.071Z,85.37
2023-03-14T03:38:41.438Z,85.82
2023-03-14T03:41:11.359Z,85.58
2023-03-14T03:43:42.672Z,85.47
2023-03-14T03:46:12.184Z,85.75
2023-03-14T03:51:24.638Z,85.94
2023-03-14T03:53:54.184Z,85.85
2023-03-14T03:56:24.582Z,85.68
2023-03-14T03:58:54.152Z,85.65
2023-03-14T04:01:23.394Z,86.55
2023-03-14T04:03:53.263Z,86.12
2023-03-14T04:06:24.449Z,86.12
2023-03-14T04:08:53.976Z,85.91
2023-03-14T04:11:23.366Z,85.75
2023-03-14T04:13:52.808Z,85.78
2023-03-14T04:16:25.460Z,86.08
2023-03-14T04:18:55.471Z,85.80
2023-03-14T04:21:26.475Z,85.82
2023-03-14T04:23:55.765Z,85.24
2023-03-14T04:26:25.279Z,85.49
2023-03-14T04:28:54.662Z,85.25
2023-03-14T04:31:25.248Z,85.09
2023-03-14T04:33:54.933Z,84.95
2023-03-14T04:36:25.817Z,85.16
2023-03-14T04:38:55.159Z,84.96
2023-03-14T04:41:24.491Z,85.15
2023-03-14T04:43:54.011Z,85.65
2023-03-14T04:46:23.610Z,85.33
2023-03-14T04:48:53.031Z,85.45
2023-03-14T04:51:24.586Z,85.86
2023-03-14T04:53:55.553Z,85.29
2023-03-14T04:56:25.230Z,85.38
2023-03-14T04:58:54.702Z,85.19
2023-03-14T05:01:24.684Z,85.44
2023-03-14T05:03:54.152Z,85.25
2023-03-14T05:06:23.569Z,84.90
2023-03-14T05:08:54.446Z,85.09
2023-03-14T05:11:23.791Z,85.32
2023-03-14T05:13:53.198Z,85.73
2023-03-14T05:16:22.578Z,85.29
2023-03-14T05:18:52.560Z,85.18
2023-03-14T05:21:21.890Z,85.20
2023-03-14T05:23:51.386Z,85.01
2023-03-14T05:26:22.202Z,84.83
2023-03-14T05:28:51.598Z,84.60
2023-03-14T05:31:21.000Z,84.63
2023-03-14T05:33:50.410Z,84.10
2023-03-14T05:36:19.793Z,83.66
2023-03-14T05:38:49.098Z,83.14
2023-03-14T05:41:18.505Z,82.17
2023-03-14T05:43:49.270Z,81.11
2023-03-14T05:46:18.711Z,80.71
2023-03-14T05:48:48.028Z,79.60
2023-03-14T05:51:17.369Z,78.89
2023-03-14T05:53:46.710Z,77.92
2023-03-14T05:56:16.169Z,77.33
2023-03-14T05:58:45.851Z,76.31
2023-03-14T06:01:16.556Z,75.58
2023-03-14T06:03:45.917Z,75.52
2023-03-14T06:06:15.287Z,74.78
2023-03-14T06:08:44.589Z,74.78
2023-03-14T06:11:14.314Z,74.27
2023-03-14T06:13:43.631Z,73.44
2023-03-14T06:16:13.117Z,72.91
2023-03-14T06:18:44.053Z,71.60
2023-03-14T06:21:13.330Z,71.02
2023-03-14T06:23:42.796Z,70.12
2023-03-14T06:26:12.895Z,69.66
2023-03-14T06:28:42.455Z,68.97
2023-03-14T06:31:11.846Z,66.88
2023-03-14T06:33:42.883Z,63.39
2023-03-14T06:36:12.958Z,61.13
2023-03-14T06:38:42.245Z,58.02
2023-03-14T06:41:11.924Z,59.48
2023-03-14T06:43:41.311Z,59.65
2023-03-14T06:46:10.713Z,59.19
2023-03-14T06:51:26.839Z,57.21
2023-03-14T06:53:56.153Z,55.46
2023-03-14T06:56:25.415Z,56.66
2023-03-14T06:58:54.921Z,53.12
2023-03-14T07:01:28.186Z,50.94
2023-03-14T07:03:57.997Z,51.04
2023-03-14T07:06:30.425Z,50.03
2023-03-14T07:09:00.139Z,51.48
2023-03-14T07:11:30.072Z,51.71
2023-03-14T07:13:59.480Z,52.62
2023-03-14T07:16:32.492Z,52.63
2023-03-14T07:19:02.195Z,49.70
2023-03-14T07:21:35.851Z,48.56
2023-03-14T07:24:05.305Z,48.90
2023-03-14T07:26:34.693Z,48.56
2023-03-14T07:29:05.136Z,49.15
2023-03-14T07:31:35.209Z,47.80
2023-03-14T07:34:04.517Z,49.44
2023-03-14T07:36:35.271Z,46.69
2023-03-14T07:39:05.361Z,48.86
2023-03-14T07:41:35.175Z,47.88
2023-03-14T07:44:04.464Z,48.83
2023-03-14T07:46:33.821Z,48.96
2023-03-14T07:49:03.408Z,47.26
2023-03-14T07:51:34.270Z,48.63
2023-03-14T07:54:03.772Z,48.98
2023-03-14T07:56:33.244Z,46.44
2023-03-14T07:59:02.835Z,47.14
2023-03-14T08:01:32.176Z,48.16
2023-03-14T08:04:01.857Z,45.28
2023-03-14T08:06:31.329Z,45.69
2023-03-14T08:09:02.200Z,46.56
2023-03-14T08:11:31.445Z,45.89
2023-03-14T08:14:01.014Z,44.24
2023-03-14T08:16:30.494Z,43.78
2023-03-14T08:18:59.939Z,42.93
2023-03-14T08:21:29.465Z,40.17
2023-03-14T08:23:58.905Z,43.72
2023-03-14T08:26:29.754Z,42.89
2023-03-14T08:28:59.055Z,43.03
2023-03-14T08:31:28.502Z,43.41
2023-03-14T08:33:57.954Z,43.18
2023-03-14T08:36:27.373Z,42.59
2023-03-14T08:38:56.801Z,41.48
2023-03-14T08:41:28.372Z,41.94
2023-03-14T08:43:57.781Z,39.71
2023-03-14T08:46:27.156Z,40.03
2023-03-14T08:48:56.631Z,43.11
2023-03-14T08:51:26.060Z,41.67
2023-03-14T08:53:55.632Z,42.11
2023-03-14T08:56:26.219Z,42.07
2023-03-14T08:58:57.119Z,40.34
2023-03-14T09:01:27.500Z,41.05
2023-03-14T09:03:57.046Z,41.09
2023-03-14T09:06:26.584Z,40.56
2023-03-14T09:08:56.074Z,37.43
2023-03-14T09:11:25.489Z,41.24
2023-03-14T09:13:56.218Z,41.18
2023-03-14T09:16:25.797Z,38.16
2023-03-14T09:18:55.767Z,39.82
2023-03-14T09:21:25.302Z,39.71
2023-03-14T09:23:55.018Z,40.17
2023-03-14T09:26:24.384Z,40.28
2023-03-14T09:28:53.717Z,40.77
2023-03-14T09:31:24.749Z,40.27
2023-03-14T09:33:54.180Z,40.62
2023-03-14T09:36:23.651Z,40.58
2023-03-14T09:38:52.960Z,40.65
2023-03-14T09:41:28.034Z,39.14
2023-03-14T09:44:06.874Z,38.98
2023-03-14T09:46:40.552Z,40.08
2023-03-14T09:51:25.340Z,41.05
2023-03-14T09:53:54.744Z,41.02
2023-03-14T09:56:28.051Z,39.54
2023-03-14T09:59:00.614Z,41.29
2023-03-14T10:01:33.357Z,40.14
2023-03-14T10:04:09.553Z,40.35
2023-03-14T10:06:40.603Z,39.96
2023-03-14T10:09:15.613Z,39.84
2023-03-14T10:11:44.975Z,40.65
2023-03-14T10:14:14.965Z,41.80
2023-03-14T10:16:47.294Z,40.47
2023-03-14T10:19:19.103Z,38.82
2023-03-14T10:21:55.963Z,38.89
2023-03-14T10:24:31.449Z,40.94
2023-03-14T10:27:05.421Z,39.92
2023-03-14T10:29:36.743Z,41.15
2023-03-14T10:32:08.987Z,39.60
2023-03-14T10:34:40.621Z,41.22
2023-03-14T10:37:24.437Z,39.20
2023-03-14T10:39:56.369Z,41.88
2023-03-14T10:42:31.165Z,39.85
2023-03-14T10:45:03.813Z,40.63
2023-03-14T10:47:35.293Z,41.93
2023-03-14T10:50:29.278Z,40.97
2023-03-14T10:53:06.580Z,40.72
2023-03-14T10:55:46.226Z,41.13
2023-03-14T10:58:35.331Z,39.04
2023-03-14T11:01:23.922Z,42.24
2023-03-14T11:04:00.117Z,40.46
2023-03-14T11:06:39.069Z,42.35
2023-03-14T11:09:23.761Z,41.97
2023-03-14T11:11:53.250Z,42.06
2023-03-14T11:14:33.115Z,41.75
2023-03-14T11:17:07.660Z,42.66
2023-03-14T11:20:07.371Z,41.68
2023-03-14T11:22:43.937Z,42.32
2023-03-14T11:25:27.340Z,41.81
2023-03-14T11:28:08.115Z,42.36
2023-03-14T11:30:46.089Z,41.19
2023-03-14T11:33:20.052Z,41.37
2023-03-14T11:35:55.339Z,41.98
2023-03-14T11:38:35.647Z,41.34
2023-03-14T11:41:12.322Z,41.50
2023-03-14T11:43:44.226Z,41.42
2023-03-14T11:46:20.320Z,41.63
2023-03-14T11:49:06.456Z,39.56
2023-03-14T11:51:40.183Z,41.81
2023-03-14T11:54:20.935Z,39.45
2023-03-14T11:56:56.927Z,40.54
2023-03-14T11:59:32.087Z,39.78
2023-03-14T12:02:06.521Z,39.63
2023-03-14T12:04:55.793Z,41.35
2023-03-14T12:07:32.643Z,40.29
2023-03-14T12:10:02.270Z,40.83
2023-03-14T12:12:34.288Z,40.74
2023-03-14T12:15:06.472Z,40.04
2023-03-14T12:17:41.653Z,40.13
2023-03-14T12:20:22.343Z,39.59
2023-03-14T12:22:54.545Z,39.83
2023-03-14T12:25:27.488Z,39.65
2023-03-14T12:28:23.288Z,39.24
2023-03-14T12:30:52.646Z,38.95
2023-03-14T12:33:34.908Z,39.67
2023-03-14T12:36:14.112Z,38.77
2023-03-14T12:39:11.504Z,38.97
2023-03-14T12:41:47.292Z,36.84
2023-03-14T12:44:48.526Z,38.48
2023-03-14T12:51:37.172Z,36.98
2023-03-14T12:54:31.609Z,38.17
2023-03-14T12:57:12.826Z,38.58
2023-03-14T12:59:49.491Z,39.29
2023-03-14T13:02:28.825Z,37.95
2023-03-14T13:05:07.188Z,38.07
2023-03-14T13:08:12.389Z,39.01
2023-03-14T13:10:51.227Z,39.25
2023-03-14T13:13:26.964Z,39.61
2023-03-14T13:16:01.489Z,39.30
2023-03-14T13:18:37.378Z,39.75
2023-03-14T13:21:13.458Z,39.81
2023-03-14T13:23:45.324Z,39.50
2023-03-14T13:26:17.955Z,38.85
2023-03-14T13:28:47.139Z,40.20
2023-03-14T13:31:25.759Z,39.18
2023-03-14T13:34:07.320Z,40.42
2023-03-14T13:36:39.306Z,40.45
2023-03-14T13:39:17.744Z,40.61
2023-03-14T13:41:49.736Z,41.16
2023-03-14T13:44:25.260Z,40.87
2023-03-14T13:46:54.747Z,41.32
2023-03-14T13:49:27.382Z,41.52
2023-03-14T13:51:56.466Z,42.05
2023-03-14T13:54:30.044Z,42.17
2023-03-14T13:57:04.586Z,42.45
2023-03-14T13:59:35.924Z,42.53
2023-03-14T14:02:18.424Z,42.66
2023-03-14T14:04:48.061Z,42.65
2023-03-14T14:07:20.538Z,43.34
2023-03-14T14:09:54.589Z,42.74
2023-03-14T14:12:30.391Z,43.59
2023-03-14T14:15:03.500Z,43.25
2023-03-14T14:17:37.885Z,43.16
2023-03-14T14:20:13.076Z,43.86
2023-03-14T14:22:43.046Z,44.19
2023-03-14T14:25:18.053Z,44.01
2023-03-14T14:27:52.406Z,44.19
2023-03-14T14:30:36.386Z,43.96
2023-03-14T14:33:22.128Z,44.29
2023-03-14T14:35:57.994Z,44.45
2023-03-14T14:38:28.341Z,44.12
2023-03-14T14:41:04.839Z,44.20
2023-03-14T14:43:38.495Z,44.65
2023-03-14T14:46:10.702Z,45.17
2023-03-14T14:48:41.317Z,44.29
2023-03-14T14:51:11.039Z,44.98
2023-03-14T14:53:43.018Z,45.38
2023-03-14T14:56:23.698Z,45.62
2023-03-14T14:58:53.195Z,45.40
2023-03-14T15:01:27.883Z,45.32
2023-03-14T15:03:57.698Z,45.41
2023-03-14T15:06:32.190Z,45.08
2023-03-14T15:09:01.557Z,46.32
2023-03-14T15:11:32.240Z,45.79
2023-03-14T15:14:01.715Z,46.11
2023-03-14T15:16:33.872Z,45.65
2023-03-14T15:19:23.051Z,45.44
2023-03-14T15:21:53.948Z,45.88
2023-03-14T15:24:23.599Z,45.36
2023-03-14T15:26:54.894Z,46.22
2023-03-14T15:29:24.380Z,45.54
2023-03-14T15:31:53.739Z,45.46
2023-03-14T15:34:23.812Z,45.67
2023-03-14T15:36:53.095Z,46.78
2023-03-14T15:39:22.413Z,46.81
2023-03-14T15:41:53.175Z,46.89
2023-03-14T15:44:23.254Z,47.13
2023-03-14T15:46:52.582Z,47.58
2023-03-14T15:51:24.458Z,48.33
2023-03-14T15:53:53.971Z,48.37
2023-03-14T15:56:26.151Z,48.13
2023-03-14T15:58:57.081Z,47.95
2023-03-14T16:01:26.515Z,48.39
2023-03-14T16:03:56.902Z,49.50
2023-03-14T16:06:27.720Z,47.89
2023-03-14T16:08:57.734Z,49.11
2023-03-14T16:11:27.129Z,50.09
2023-03-14T16:13:56.507Z,49.89
2023-03-14T16:16:25.988Z,50.38
2023-03-14T16:18:55.349Z,50.25
2023-03-14T16:21:24.770Z,50.85
2023-03-14T16:23:55.695Z,51.00
2023-03-14T16:26:25.240Z,51.37
2023-03-14T16:28:55.195Z,51.68
2023-03-14T16:31:26.783Z,52.79
2023-03-14T16:33:56.258Z,52.42
2023-03-14T16:36:25.811Z,53.77
2023-03-14T16:38:56.908Z,53.42
2023-03-14T16:41:29.938Z,53.09
2023-03-14T16:43:59.498Z,51.81
2023-03-14T16:49:19.807Z,51.77
2023-03-14T16:51:49.308Z,51.96
2023-03-14T16:54:20.109Z,52.54
2023-03-14T16:56:49.792Z,52.88
2023-03-14T16:59:19.114Z,53.45
2023-03-14T17:01:50.360Z,52.69
2023-03-14T17:04:20.078Z,53.33
2023-03-14T17:06:49.305Z,53.11
2023-03-14T17:09:20.437Z,54.45
2023-03-14T17:11:49.720Z,55.03
2023-03-14T17:14:19.030Z,55.09
2023-03-14T17:16:48.374Z,55.64
2023-03-14T17:19:17.634Z,55.14
2023-03-14T17:21:47.015Z,54.76
2023-03-14T17:24:16.410Z,56.60
2023-03-14T17:26:47.109Z,56.39
2023-03-14T17:29:16.577Z,56.79
2023-03-14T17:31:45.945Z,58.02
2023-03-14T17:34:15.236Z,58.16
2023-03-14T17:36:44.595Z,58.74
2023-03-14T17:39:13.868Z,59.12
2023-03-14T17:41:43.147Z,58.63
2023-03-14T17:44:13.969Z,59.50
2023-03-14T17:46:43.221Z,58.80
2023-03-14T17:49:12.576Z,58.76
2023-03-14T17:51:42.237Z,58.95
2023-03-14T17:54:11.665Z,59.68
2023-03-14T17:56:43.939Z,60.98
2023-03-14T17:59:15.272Z,60.83
2023-03-14T18:01:44.983Z,60.63
2023-03-14T18:04:15.016Z,61.11
2023-03-14T18:06:44.983Z,60.59
2023-03-14T18:09:14.406Z,61.57
2023-03-14T18:11:43.729Z,62.46
2023-03-14T18:14:17.769Z,62.52
2023-03-14T18:16:49.864Z,63.15
2023-03-14T18:19:19.690Z,63.27
2023-03-14T18:21:49.125Z,63.20
2023-03-14T18:24:18.474Z,63.25
2023-03-14T18:26:47.776Z,63.55
2023-03-14T18:29:18.733Z,63.45
2023-03-14T18:31:48.265Z,64.48
2023-03-14T18:34:18.232Z,64.73
2023-03-14T18:36:47.598Z,65.39
2023-03-14T18:39:16.895Z,65.45
2023-03-14T18:41:46.313Z,65.74
2023-03-14T18:44:17.132Z,66.65
2023-03-14T18:46:47.565Z,66.86
2023-03-14T18:51:27.179Z,67.37
2023-03-14T18:54:08.213Z,67.59
2023-03-14T18:56:38.926Z,68.01
2023-03-14T18:59:09.092Z,68.21
2023-03-14T19:01:38.982Z,68.73
2023-03-14T19:04:10.937Z,68.27
2023-03-14T19:06:42.857Z,68.16
2023-03-14T19:09:15.940Z,67.18
2023-03-14T19:11:45.890Z,65.76
2023-03-14T19:14:17.905Z,65.50
2023-03-14T19:16:47.291Z,65.42
2023-03-14T19:19:16.675Z,65.78
2023-03-14T19:21:47.492Z,66.55
2023-03-14T19:24:22.991Z,66.65
2023-03-14T19:26:54.261Z,67.27
2023-03-14T19:29:24.191Z,67.40
2023-03-14T19:31:54.485Z,68.31
2023-03-14T19:34:24.000Z,67.78
2023-03-14T19:36:54.779Z,68.65
2023-03-14T19:39:24.175Z,67.79
2023-03-14T19:41:57.880Z,67.04
2023-03-14T19:44:28.285Z,65.90
2023-03-14T19:46:57.752Z,66.14
2023-03-14T19:49:28.025Z,67.61
2023-03-14T19:51:58.914Z,67.40
2023-03-14T19:54:28.483Z,68.23
2023-03-14T19:56:57.888Z,68.47
2023-03-14T19:59:27.244Z,65.94
2023-03-14T20:01:58.558Z,67.60
2023-03-14T20:04:27.939Z,67.34
2023-03-14T20:06:58.725Z,66.62
2023-03-14T20:09:28.373Z,66.53
2023-03-14T20:11:57.775Z,65.67
2023-03-14T20:14:27.296Z,65.12
2023-03-14T20:16:56.732Z,64.96
2023-03-14T20:19:26.201Z,64.74
2023-03-14T20:21:55.537Z,62.63
2023-03-14T20:24:26.536Z,62.70
2023-03-14T20:26:55.872Z,62.48
2023-03-14T20:29:25.759Z,62.54
2023-03-14T20:31:55.054Z,62.71
2023-03-14T20:34:24.445Z,63.16
2023-03-14T20:36:54.164Z,64.15
2023-03-14T20:39:25.215Z,64.51
2023-03-14T20:41:54.881Z,65.15
2023-03-14T20:44:25.013Z,65.26
2023-03-14T20:46:55.672Z,65.46
2023-03-14T20:49:25.596Z,66.50
2023-03-14T20:51:55.220Z,66.05
2023-03-14T20:54:26.015Z,66.67
2023-03-14T20:56:55.501Z,65.97
2023-03-14T20:59:25.009Z,66.61
2023-03-14T21:01:55.771Z,66.37
2023-03-14T21:04:26.590Z,66.84
2023-03-14T21:06:56.707Z,66.91
2023-03-14T21:09:29.061Z,67.62
2023-03-14T21:11:58.355Z,66.87
2023-03-14T21:14:27.869Z,67.00
2023-03-14T21:16:59.181Z,66.79
2023-03-14T21:19:31.701Z,66.11
2023-03-14T21:22:02.661Z,67.01
2023-03-14T21:24:35.328Z,66.00
2023-03-14T21:27:04.694Z,65.38
2023-03-14T21:29:37.410Z,67.45
2023-03-14T21:32:06.846Z,67.48
2023-03-14T21:34:36.503Z,68.17
2023-03-14T21:37:06.341Z,67.62
2023-03-14T21:39:37.178Z,66.15
2023-03-14T21:42:06.679Z,67.02
2023-03-14T21:44:37.475Z,67.47
2023-03-14T21:47:07.957Z,67.66
2023-03-14T21:51:31.405Z,68.74
2023-03-14T21:54:00.765Z,68.08
2023-03-14T21:56:30.034Z,68.26
2023-03-14T21:59:00.897Z,68.45
2023-03-14T22:01:30.379Z,67.53
2023-03-14T22:03:59.764Z,68.31
2023-03-14T22:06:31.381Z,70.31
2023-03-14T22:09:00.753Z,70.36
2023-03-14T22:11:30.295Z,70.35
2023-03-14T22:13:59.696Z,70.72
2023-03-14T22:16:29.873Z,70.76
2023-03-14T22:18:59.146Z,71.14
2023-03-14T22:21:30.357Z,71.54
2023-03-14T22:23:59.670Z,71.88
2023-03-14T22:26:29.123Z,72.01
2023-03-14T22:28:58.554Z,72.68
2023-03-14T22:31:28.267Z,72.56
2023-03-14T22:33:57.605Z,72.50
2023-03-14T22:36:27.293Z,73.06
2023-03-14T22:38:58.642Z,72.77
2023-03-14T22:41:28.216Z,73.00
2023-03-14T22:43:57.630Z,73.03
2023-03-14T22:46:26.881Z,73.47
2023-03-14T22:48:56.264Z,73.79
2023-03-14T22:51:25.518Z,73.93
2023-03-14T22:53:56.201Z,73.95
2023-03-14T22:56:25.750Z,74.99
2023-03-14T22:58:54.979Z,76.08
2023-03-14T23:01:25.048Z,75.03
2023-03-14T23:03:54.389Z,75.26
2023-03-14T23:06:24.266Z,75.24
2023-03-14T23:08:53.784Z,75.69
2023-03-14T23:11:26.562Z,75.44
2023-03-14T23:13:56.049Z,75.46
2023-03-14T23:16:34.075Z,75.42
2023-03-14T23:19:09.960Z,75.46
2023-03-14T23:21:39.576Z,75.47
2023-03-14T23:24:10.222Z,75.52
2023-03-14T23:26:40.984Z,76.05
2023-03-14T23:29:14.110Z,75.90
2023-03-14T23:31:43.836Z,76.51
2023-03-14T23:34:13.258Z,76.49
2023-03-14T23:36:46.114Z,77.23
2023-03-14T23:39:15.115Z,77.52
2023-03-14T23:41:46.079Z,77.14
2023-03-14T23:44:15.482Z,77.97
2023-03-14T23:46:44.842Z,77.20
2023-03-14T23:49:14.357Z,77.67
2023-03-14T23:51:43.586Z,78.12
2023-03-14T23:54:12.979Z,77.87
2023-03-14T23:56:42.378Z,77.75
2023-03-14T23:59:13.451Z,77.72
